LNG Finima II — ZCEQ4 — position and weather

sailwx.info

Track history (hours):
 
Tides and Currents Weather Stations Pressure Air Temp Water Temp Dewpoint Dewpoint Depression Visibility Wind Speed Wind Dir Waves Ship Positions

LNG Finima II

Last reported at 2018-Apr-12 13:00 UTC. Time now 2018-Apr-26 23:12 UTC.
Position N 08°42' W 016°23'.
Warning: this ship's position is 14 days out of date.

Length 292 m; draft 9.3 m.

Type: Ship. MMSI: 310722000.

Date/timePositionNaut miles runAvg speedWind from/ knotsBaromVisibWave heightAir tempDewpointWater temp
2018-Apr-12 13:00N 08°42' W 016°23'918.5
2018-Apr-12 12:30N 08°49' W 016°30'  
2018-Apr-09 17:47N 27°57' W 016°24'619.2
2018-Apr-09 17:28N 28°01' W 016°20'919.4
2018-Apr-09 17:00N 28°09' W 016°14'917.5
2018-Apr-09 16:30N 28°17' W 016°10'714.0
2018-Apr-09 16:00N 28°23' W 016°10'4 7.8
2018-Apr-09 15:30N 28°27' W 016°09'2 4.6
2018-Apr-09 15:00N 28°28' W 016°06'3 5.3
2018-Apr-09 14:30N 28°29' W 016°03'5 9.7
2018-Apr-09 14:00N 28°30' W 015°58'510.8
2018-Apr-09 13:30N 28°33' W 015°53'510.9
2018-Apr-09 13:00N 28°36' W 015°48'511.0
2018-Apr-09 12:30N 28°40' W 015°44'510.7
2018-Apr-09 12:00N 28°44' W 015°39'2 3.1
2018-Apr-09 11:30N 28°44' W 015°41'510.4
2018-Apr-09 11:00N 28°47' W 015°37'510.8
2018-Apr-09 10:30N 28°51' W 015°32'510.9
2018-Apr-09 10:00N 28°55' W 015°28'610.9
2018-Apr-09 09:30N 28°59' W 015°23'611.2
2018-Apr-09 09:00N 29°03' W 015°19'610.9
2018-Apr-09 08:28N 29°07' W 015°14'3 2.6
2018-Apr-09 07:21N 29°07' W 015°18'2 5.3
2018-Apr-09 07:00N 29°07' W 015°16'  
2018-Apr-03 15:20N 29°04' W 015°12'618.6
2018-Apr-03 15:00N 28°60' W 015°16'918.5
2018-Apr-03 14:30N 28°53' W 015°23'918.5
2018-Apr-03 14:00N 28°46' W 015°30'918.4
2018-Apr-03 13:30N 28°39' W 015°37'918.3
2018-Apr-03 13:00N 28°31' W 015°43'918.0
2018-Apr-03 12:30N 28°24' W 015°49'917.8
2018-Apr-03 12:00N 28°18' W 015°57'918.1
2018-Apr-03 11:30N 28°11' W 016°03'1018.1
2018-Apr-03 10:58N 28°04' W 016°11'  
Track history (hours):
 
Tides and Currents Weather Stations Pressure Air Temp Water Temp Dewpoint Dewpoint Depression Visibility Wind Speed Wind Dir Waves Ship Positions

LNG Finima II

Last reported at 2018-Apr-12 13:00 UTC. Time now 2018-Apr-26 23:12 UTC.
Position N 08°42' W 016°23'.
Warning: this ship's position is 14 days out of date.

Length 292 m; draft 9.3 m.

Type: Ship. MMSI: 310722000.

Date/timePositionNaut miles runAvg speedWind from/ knotsBaromVisibWave heightAir tempDewpointWater temp
2018-Apr-12 13:00N 08°42' W 016°23'918.5
2018-Apr-12 12:30N 08°49' W 016°30'  
2018-Apr-09 17:47N 27°57' W 016°24'619.2
2018-Apr-09 17:28N 28°01' W 016°20'919.4
2018-Apr-09 17:00N 28°09' W 016°14'917.5
2018-Apr-09 16:30N 28°17' W 016°10'714.0
2018-Apr-09 16:00N 28°23' W 016°10'4 7.8
2018-Apr-09 15:30N 28°27' W 016°09'2 4.6
2018-Apr-09 15:00N 28°28' W 016°06'3 5.3
2018-Apr-09 14:30N 28°29' W 016°03'5 9.7
2018-Apr-09 14:00N 28°30' W 015°58'510.8
2018-Apr-09 13:30N 28°33' W 015°53'510.9
2018-Apr-09 13:00N 28°36' W 015°48'511.0
2018-Apr-09 12:30N 28°40' W 015°44'510.7
2018-Apr-09 12:00N 28°44' W 015°39'2 3.1
2018-Apr-09 11:30N 28°44' W 015°41'510.4
2018-Apr-09 11:00N 28°47' W 015°37'510.8
2018-Apr-09 10:30N 28°51' W 015°32'510.9
2018-Apr-09 10:00N 28°55' W 015°28'610.9
2018-Apr-09 09:30N 28°59' W 015°23'611.2
2018-Apr-09 09:00N 29°03' W 015°19'610.9
2018-Apr-09 08:28N 29°07' W 015°14'3 2.6
2018-Apr-09 07:21N 29°07' W 015°18'2 5.3
2018-Apr-09 07:00N 29°07' W 015°16'  
2018-Apr-03 15:20N 29°04' W 015°12'618.6
2018-Apr-03 15:00N 28°60' W 015°16'918.5
2018-Apr-03 14:30N 28°53' W 015°23'918.5
2018-Apr-03 14:00N 28°46' W 015°30'918.4
2018-Apr-03 13:30N 28°39' W 015°37'918.3
2018-Apr-03 13:00N 28°31' W 015°43'918.0
2018-Apr-03 12:30N 28°24' W 015°49'917.8
2018-Apr-03 12:00N 28°18' W 015°57'918.1
2018-Apr-03 11:30N 28°11' W 016°03'1018.1
2018-Apr-03 10:58N 28°04' W 016°11'  

Dump ship's entire track history